Time;durP1;ratioP1;P1;durP2;ratioP2;P2;SDS_P1;SDS_P2;PMS_P1;PMS_P2;Temp;Humidity;BMP_temperature;BMP_pressure;BME280_temperature;BME280_humidity;BME280_pressure;Samples;Min_cycle;Max_cycle;Signal;HPM_P1;HPM_P2
2021/03/18 00:01:14;;;;;;;8.82;6.15;;;;;;;3.97;66.22;93872.13;5012036;28;20207;-73
2021/03/18 00:03:41;;;;;;;8.63;6.00;;;;;;;3.84;66.44;93867.94;5009986;28;20185;-73
2021/03/18 00:06:06;;;;;;;8.32;5.85;;;;;;;3.96;67.51;93876.66;5010021;28;20185;-73
2021/03/18 00:08:32;;;;;;;7.93;5.43;;;;;;;4.00;67.17;93873.38;5011794;28;20613;-74
2021/03/18 00:10:58;;;;;;;7.10;5.53;;;;;;;4.09;66.28;93880.06;5011373;28;20189;-73
2021/03/18 00:13:24;;;;;;;7.50;5.87;;;;;;;4.03;65.57;93880.63;5010712;28;20173;-73
2021/03/18 00:15:50;;;;;;;7.80;5.80;;;;;;;4.12;67.40;93887.34;5011510;28;20196;-73
2021/03/18 00:18:18;;;;;;;7.22;6.40;;;;;;;4.06;66.15;93882.63;5012084;28;20562;-73
2021/03/18 00:20:43;;;;;;;8.43;5.85;;;;;;;4.12;66.24;93878.66;5010245;28;20172;-73
2021/03/18 00:23:09;;;;;;;8.67;6.17;;;;;;;4.06;65.24;93880.75;5011567;28;20521;-73
2021/03/18 00:25:35;;;;;;;8.40;5.47;;;;;;;3.80;64.56;93882.88;5011339;28;20165;-74
2021/03/18 00:28:01;;;;;;;7.43;5.47;;;;;;;4.00;63.63;93882.06;5011611;28;20165;-73
2021/03/18 00:30:26;;;;;;;10.10;6.33;;;;;;;4.04;65.59;93876.88;5011615;28;20562;-71
2021/03/18 00:32:52;;;;;;;9.40;6.60;;;;;;;4.07;65.45;93876.22;5011252;28;20535;-71
2021/03/18 00:35:17;;;;;;;10.20;6.37;;;;;;;4.19;65.50;93876.25;5011632;28;20255;-71
2021/03/18 00:37:43;;;;;;;10.50;6.20;;;;;;;4.09;65.16;93874.03;5011325;28;20660;-71
2021/03/18 00:40:16;;;;;;;8.83;5.90;;;;;;;3.96;64.98;93876.66;5011385;28;20256;-72
2021/03/18 00:42:49;;;;;;;9.25;6.53;;;;;;;4.08;65.58;93875.13;5011488;28;20177;-72
2021/03/18 00:45:15;;;;;;;9.27;6.60;;;;;;;4.12;64.86;93868.88;5011447;28;20298;-73
2021/03/18 00:47:41;;;;;;;9.68;6.93;;;;;;;4.04;65.05;93874.22;5011407;28;20173;-72
2021/03/18 00:50:07;;;;;;;7.83;5.97;;;;;;;4.18;64.98;93874.69;5011343;28;20205;-72
2021/03/18 00:52:33;;;;;;;8.27;6.40;;;;;;;3.97;65.72;93867.63;5010919;28;20729;-72
2021/03/18 00:54:58;;;;;;;11.13;6.40;;;;;;;3.87;66.07;93867.25;5011257;28;20177;-72
2021/03/18 00:57:24;;;;;;;8.23;5.97;;;;;;;4.00;65.15;93874.13;5011068;28;20264;-72
2021/03/18 00:59:49;;;;;;;10.00;6.80;;;;;;;4.17;64.72;93873.16;5011410;28;20173;-72
2021/03/18 01:02:15;;;;;;;12.53;6.97;;;;;;;4.03;65.30;93867.41;5011425;28;20252;-72
2021/03/18 01:04:43;;;;;;;9.63;5.95;;;;;;;4.00;64.35;93865.44;5011425;28;20188;-73
2021/03/18 01:07:08;;;;;;;9.57;6.05;;;;;;;4.10;64.20;93873.72;5015195;28;20275;-73
2021/03/18 01:09:34;;;;;;;9.73;6.60;;;;;;;4.07;65.33;93873.59;5014628;28;20227;-72
2021/03/18 01:11:59;;;;;;;10.60;7.10;;;;;;;4.16;64.12;93867.13;5015006;28;20660;-73
2021/03/18 01:14:25;;;;;;;8.57;6.33;;;;;;;3.93;63.99;93871.25;5014731;28;20169;-72
2021/03/18 01:16:51;;;;;;;9.73;6.47;;;;;;;4.02;63.15;93876.44;5014935;28;20220;-72
2021/03/18 01:19:18;;;;;;;9.98;6.70;;;;;;;4.05;64.89;93875.78;5013524;28;20307;-72
2021/03/18 01:21:46;;;;;;;8.13;6.38;;;;;;;4.07;64.99;93870.94;5014850;28;20208;-72
2021/03/18 01:24:12;;;;;;;8.88;6.35;;;;;;;4.19;64.09;93876.25;5014634;28;20653;-72
2021/03/18 01:26:38;;;;;;;10.00;7.07;;;;;;;4.01;63.99;93867.75;5013463;28;20181;-72
2021/03/18 01:29:03;;;;;;;9.98;6.93;;;;;;;4.07;64.02;93881.50;5014619;28;20176;-72
2021/03/18 01:31:29;;;;;;;9.67;6.57;;;;;;;4.11;63.76;93883.19;5014376;28;20212;-72
2021/03/18 01:33:55;;;;;;;9.93;6.70;;;;;;;4.06;63.09;93885.25;5014490;28;20256;-71
2021/03/18 01:36:20;;;;;;;11.87;7.20;;;;;;;4.05;64.99;93879.19;5014210;28;20177;-72
2021/03/18 01:38:46;;;;;;;8.63;7.03;;;;;;;4.13;64.20;93877.56;5014385;28;20162;-72
2021/03/18 01:41:12;;;;;;;10.57;6.40;;;;;;;4.18;63.18;93872.06;5014027;28;20169;-72
2021/03/18 01:43:38;;;;;;;11.48;6.72;;;;;;;4.09;63.62;93872.16;5014440;28;20260;-72
2021/03/18 01:46:03;;;;;;;9.13;6.67;;;;;;;4.21;63.28;93876.69;5013969;28;20311;-72
2021/03/18 01:48:29;;;;;;;10.27;7.40;;;;;;;4.07;63.08;93874.34;5013902;28;20648;-72
2021/03/18 01:50:54;;;;;;;9.80;6.13;;;;;;;4.05;62.59;93873.16;5014043;28;20583;-72
2021/03/18 01:53:21;;;;;;;12.33;7.10;;;;;;;4.24;63.49;93883.94;5012658;28;20303;-72
2021/03/18 01:55:47;;;;;;;9.85;6.80;;;;;;;4.11;63.11;93880.53;5012884;28;20177;-72
2021/03/18 01:58:13;;;;;;;8.45;5.82;;;;;;;4.18;62.95;93883.41;5013784;28;20649;-72
2021/03/18 02:00:40;;;;;;;6.27;5.20;;;;;;;4.25;63.24;93891.53;5014081;28;20177;-72
2021/03/18 02:03:06;;;;;;;8.55;6.18;;;;;;;4.25;62.04;93896.06;5010285;28;20687;-72
2021/03/18 02:05:32;;;;;;;8.83;6.67;;;;;;;4.17;63.58;93891.66;5012738;28;20205;-72
2021/03/18 02:07:57;;;;;;;10.80;6.50;;;;;;;3.99;63.01;93891.09;5012200;28;20600;-71
2021/03/18 02:10:24;;;;;;;9.57;6.53;;;;;;;4.03;64.09;93896.47;5012610;28;20627;-72
2021/03/18 02:12:50;;;;;;;8.18;6.50;;;;;;;4.21;63.90;93895.97;5013487;28;20263;-72
2021/03/18 02:15:15;;;;;;;9.50;7.07;;;;;;;4.07;63.28;93900.00;5013873;28;20256;-72
2021/03/18 02:18:10;;;;;;;9.33;6.57;;;;;;;4.14;62.96;93900.22;4994273;28;20196;-72
2021/03/18 02:20:51;;;;;;;9.63;6.47;;;;;;;4.03;64.06;93909.66;5011686;28;20193;-72
2021/03/18 02:23:42;;;;;;;9.15;6.32;;;;;;;4.15;63.42;93909.69;5012039;28;20181;-72
2021/03/18 02:26:45;;;;;;;9.90;6.70;;;;;;;3.89;64.17;93908.09;5012209;28;20212;-72
2021/03/18 02:29:35;;;;;;;8.35;5.68;;;;;;;4.04;64.86;93919.13;5013517;28;20180;-72
2021/03/18 02:32:25;;;;;;;8.38;5.82;;;;;;;4.26;63.21;93916.09;5013295;28;20187;-72
2021/03/18 02:34:53;;;;;;;7.80;5.50;;;;;;;3.73;64.10;93912.44;5013146;28;20169;-72
2021/03/18 02:37:20;;;;;;;9.13;6.35;;;;;;;3.82;64.22;93897.31;5013232;28;20258;-72
2021/03/18 02:40:08;;;;;;;9.60;6.55;;;;;;;3.87;64.00;93910.31;4995778;28;20644;-72
2021/03/18 02:42:34;;;;;;;9.48;6.40;;;;;;;4.00;63.39;93902.41;5012791;28;20228;-72
2021/03/18 02:45:00;;;;;;;8.27;6.07;;;;;;;4.01;63.42;93907.38;4995645;28;20187;-72
2021/03/18 02:47:25;;;;;;;9.10;6.80;;;;;;;3.93;64.31;93906.38;4995780;28;20181;-72
2021/03/18 02:49:52;;;;;;;8.50;6.30;;;;;;;4.01;64.10;93911.88;4995408;28;20299;-72
2021/03/18 02:52:19;;;;;;;16.58;5.63;;;;;;;3.99;64.72;93901.66;4979425;28;20672;-72
2021/03/18 02:54:45;;;;;;;8.63;6.25;;;;;;;4.25;63.54;93907.41;4995109;28;20225;-72
2021/03/18 02:57:11;;;;;;;11.60;5.97;;;;;;;4.01;62.74;93885.47;5012026;28;20181;-72
2021/03/18 02:59:38;;;;;;;8.63;6.00;;;;;;;4.11;62.87;93914.09;4995434;28;20439;-72
2021/03/18 03:02:06;;;;;;;7.80;5.65;;;;;;;3.90;63.11;93895.66;5011940;28;20229;-72
2021/03/18 03:04:35;;;;;;;9.43;5.97;;;;;;;3.85;63.49;93906.44;5011635;28;20561;-72
2021/03/18 03:07:01;;;;;;;10.13;6.15;;;;;;;3.82;63.48;93907.88;5011840;28;20180;-72
2021/03/18 03:09:26;;;;;;;10.73;6.73;;;;;;;3.79;64.36;93907.75;5012792;28;20599;-72
2021/03/18 03:11:53;;;;;;;7.30;5.80;;;;;;;3.85;63.78;93907.22;5011525;28;20207;-73
2021/03/18 03:14:19;;;;;;;7.57;5.22;;;;;;;3.87;62.57;93906.88;4995653;28;20173;-72
2021/03/18 03:16:44;;;;;;;9.00;6.53;;;;;;;3.82;64.02;93912.38;4995044;28;20192;-72
2021/03/18 03:19:10;;;;;;;8.33;5.63;;;;;;;3.93;62.30;93903.72;5011421;28;20215;-72
2021/03/18 03:21:35;;;;;;;9.27;6.40;;;;;;;4.04;62.24;93912.00;5012372;28;20227;-73
2021/03/18 03:24:01;;;;;;;7.43;5.73;;;;;;;3.89;62.49;93908.09;5011397;28;20180;-73
2021/03/18 03:26:26;;;;;;;8.60;5.90;;;;;;;3.70;62.83;93903.31;5011252;28;20166;-73
2021/03/18 03:28:52;;;;;;;7.80;5.53;;;;;;;3.91;63.28;93915.69;5012291;28;20607;-73
2021/03/18 03:31:17;;;;;;;8.63;5.83;;;;;;;4.00;63.06;93916.38;4994711;28;20232;-73
2021/03/18 03:33:43;;;;;;;8.97;6.30;;;;;;;3.93;64.27;93921.44;4994764;28;20196;-73
2021/03/18 03:36:09;;;;;;;10.77;6.50;;;;;;;3.76;65.31;93932.94;5012284;28;20188;-73
2021/03/18 03:38:35;;;;;;;8.98;5.70;;;;;;;3.54;65.28;93928.78;5012003;28;20559;-73
2021/03/18 03:41:01;;;;;;;8.80;6.33;;;;;;;3.60;66.45;93932.00;5012114;28;20177;-73
2021/03/18 03:43:26;;;;;;;9.57;6.17;;;;;;;3.55;66.43;93935.59;5012129;28;20192;-73
2021/03/18 03:45:52;;;;;;;10.67;6.47;;;;;;;3.66;65.95;93934.09;5012244;28;20177;-74
2021/03/18 03:48:18;;;;;;;9.68;6.28;;;;;;;3.72;66.52;93932.81;5011889;28;20174;-73
2021/03/18 03:50:44;;;;;;;8.32;5.90;;;;;;;3.83;65.97;93941.09;5012221;28;20275;-73
2021/03/18 03:53:24;;;;;;;11.00;6.33;;;;;;;3.68;67.04;93939.06;5010709;28;20707;-73
2021/03/18 03:56:12;;;;;;;10.32;5.50;;;;;;;3.64;66.54;93938.16;5011192;28;20181;-72
2021/03/18 03:58:49;;;;;;;9.10;5.80;;;;;;;3.63;67.47;93934.75;5011930;28;20228;-72
2021/03/18 04:01:29;;;;;;;8.63;6.53;;;;;;;3.45;66.38;93931.47;5012151;28;20180;-73
2021/03/18 04:04:06;;;;;;;9.50;5.78;;;;;;;3.44;66.31;93929.94;5010877;28;20276;-72
2021/03/18 04:06:36;;;;;;;8.68;5.78;;;;;;;3.71;65.61;93941.81;4994862;28;20216;-71
2021/03/18 04:09:03;;;;;;;9.70;5.55;;;;;;;3.60;66.61;93927.47;4994629;28;20227;-70
2021/03/18 04:11:29;;;;;;;8.85;5.90;;;;;;;3.65;65.86;93940.47;4994195;28;20299;-71
2021/03/18 04:13:54;;;;;;;9.90;6.27;;;;;;;3.33;65.88;93938.56;5010772;28;20181;-70
2021/03/18 04:16:21;;;;;;;9.27;6.07;;;;;;;3.49;66.60;93938.75;4994352;28;20181;-70
2021/03/18 04:18:46;;;;;;;9.38;5.97;;;;;;;3.54;65.78;93939.34;5011463;28;20196;-69
2021/03/18 04:21:12;;;;;;;9.93;6.23;;;;;;;3.47;66.24;93944.34;4994375;28;20646;-71
2021/03/18 04:23:38;;;;;;;9.53;6.90;;;;;;;3.48;65.35;93945.09;4993861;28;20188;-70
2021/03/18 04:26:03;;;;;;;8.93;5.83;;;;;;;3.76;65.21;93951.44;4994251;28;20173;-70
2021/03/18 04:28:29;;;;;;;12.27;6.10;;;;;;;3.75;65.33;93938.53;4993977;28;20694;-73
2021/03/18 04:30:55;;;;;;;10.18;6.45;;;;;;;3.47;64.37;93935.66;5010566;28;20686;-70
2021/03/18 04:33:22;;;;;;;7.27;5.30;;;;;;;3.73;65.03;93946.78;4993928;28;20185;-72
2021/03/18 04:35:48;;;;;;;8.82;6.30;;;;;;;3.82;64.16;93950.13;5010549;28;20181;-70
2021/03/18 04:38:14;;;;;;;8.00;5.67;;;;;;;3.64;63.97;93949.47;5010497;28;20584;-72
2021/03/18 04:40:39;;;;;;;8.70;5.35;;;;;;;3.50;64.58;93956.91;5012503;28;20173;-74
2021/03/18 04:43:05;;;;;;;8.57;6.03;;;;;;;3.56;64.02;93944.28;5014523;28;20184;-69
2021/03/18 04:45:31;;;;;;;8.57;6.20;;;;;;;3.51;64.49;93949.75;5014297;28;20165;-72
2021/03/18 04:47:56;;;;;;;8.73;6.40;;;;;;;3.47;64.33;93956.75;4998101;28;20259;-72
2021/03/18 04:50:22;;;;;;;7.73;5.23;;;;;;;3.34;65.50;93955.94;4997658;28;21107;-72
2021/03/18 04:52:48;;;;;;;7.88;5.53;;;;;;;3.24;65.80;93961.59;5015337;28;20307;-71
2021/03/18 04:55:15;;;;;;;8.23;5.27;;;;;;;3.50;65.81;93961.41;5015211;28;20625;-72
2021/03/18 04:57:43;;;;;;;9.63;6.07;;;;;;;3.31;66.37;93967.91;5014313;28;20180;-71
2021/03/18 05:00:09;;;;;;;10.80;6.43;;;;;;;3.61;66.02;93965.22;5014048;28;20181;-70
2021/03/18 05:02:35;;;;;;;10.27;6.13;;;;;;;3.11;68.12;93968.66;5014087;28;20270;-72
2021/03/18 05:05:01;;;;;;;10.30;5.80;;;;;;;3.24;68.19;93978.19;4997428;28;20656;-72
2021/03/18 05:07:26;;;;;;;8.27;6.10;;;;;;;3.48;66.94;93974.94;5013511;28;20193;-72
2021/03/18 05:09:51;;;;;;;9.20;5.47;;;;;;;3.73;66.10;93983.75;4997513;28;20173;-70
2021/03/18 05:12:17;;;;;;;11.87;6.60;;;;;;;3.82;66.23;93984.47;4997561;28;20177;-70
2021/03/18 05:14:42;;;;;;;9.00;5.77;;;;;;;3.25;66.26;93969.16;4997759;28;20177;-70
2021/03/18 05:17:08;;;;;;;10.00;5.77;;;;;;;3.10;67.31;93985.59;4997119;28;20567;-72
2021/03/18 05:19:33;;;;;;;10.73;5.70;;;;;;;3.07;67.81;93994.13;4997272;28;20220;-72
2021/03/18 05:21:59;;;;;;;10.00;6.40;;;;;;;3.39;68.00;93996.09;5014466;28;20216;-72
2021/03/18 05:24:24;;;;;;;7.77;5.97;;;;;;;3.61;66.76;93997.66;5013539;28;20169;-72
2021/03/18 05:26:50;;;;;;;10.40;5.70;;;;;;;3.61;66.45;93992.38;5013436;28;20279;-72
2021/03/18 05:29:16;;;;;;;8.27;5.97;;;;;;;3.48;66.63;93996.06;5014788;28;20660;-72
2021/03/18 05:31:42;;;;;;;8.23;6.00;;;;;;;3.62;67.25;93996.56;5013044;28;20225;-72
2021/03/18 05:34:07;;;;;;;9.05;5.85;;;;;;;3.43;67.40;93999.66;5014286;28;20636;-71
2021/03/18 05:36:33;;;;;;;7.67;5.53;;;;;;;3.72;67.36;94000.69;5013342;28;20193;-72
2021/03/18 05:38:59;;;;;;;8.77;5.40;;;;;;;3.63;65.49;93992.03;5014412;28;20255;-72
2021/03/18 05:41:24;;;;;;;8.53;5.63;;;;;;;3.67;65.31;94011.44;5014806;28;20209;-72
2021/03/18 05:43:50;;;;;;;9.00;5.97;;;;;;;3.59;65.37;94001.69;5014385;28;20603;-72
2021/03/18 05:46:16;;;;;;;7.87;5.57;;;;;;;3.75;65.37;94007.19;5014534;28;20223;-72
2021/03/18 05:48:45;;;;;;;8.63;6.07;;;;;;;3.85;64.49;94007.56;5013169;28;20223;-72
2021/03/18 05:51:15;;;;;;;7.57;5.63;;;;;;;3.82;64.13;94013.50;5014005;28;20197;-74
2021/03/18 05:53:42;;;;;;;7.70;4.93;;;;;;;4.07;64.62;94019.66;5014107;28;20690;-72
2021/03/18 05:56:08;;;;;;;9.20;5.50;;;;;;;4.18;63.63;94020.03;5013245;28;20184;-71
2021/03/18 05:58:33;;;;;;;6.80;5.37;;;;;;;3.97;63.91;94023.47;4996802;28;20169;-72
2021/03/18 06:00:59;;;;;;;7.27;5.43;;;;;;;3.80;62.42;94020.19;5013350;28;20173;-72
2021/03/18 06:03:24;;;;;;;8.23;5.97;;;;;;;3.98;63.17;94027.66;5013040;28;20177;-72
2021/03/18 06:05:50;;;;;;;8.33;5.63;;;;;;;4.16;62.99;94027.50;5013921;28;20204;-72
2021/03/18 06:08:15;;;;;;;7.03;5.33;;;;;;;4.06;62.94;94031.31;4996691;28;20220;-73
2021/03/18 06:10:41;;;;;;;7.20;4.80;;;;;;;4.09;62.26;94029.88;5012542;28;20646;-73
2021/03/18 06:13:06;;;;;;;6.77;5.20;;;;;;;4.13;62.80;94042.13;5014075;28;20173;-72
2021/03/18 06:15:32;;;;;;;6.90;4.50;;;;;;;4.19;63.36;94037.41;5013750;28;20667;-72
2021/03/18 06:17:57;;;;;;;7.03;4.70;;;;;;;4.17;64.64;94044.91;5012772;28;20180;-73
2021/03/18 06:20:26;;;;;;;10.07;5.53;;;;;;;4.16;64.50;94040.72;5013676;28;20172;-71
2021/03/18 06:22:51;;;;;;;8.32;5.20;;;;;;;4.24;64.48;94045.91;5013848;28;20671;-72
2021/03/18 06:25:31;;;;;;;6.40;4.93;;;;;;;4.26;63.75;94042.94;5013695;28;20200;-72
2021/03/18 06:28:22;;;;;;;6.78;5.10;;;;;;;4.21;63.12;94045.81;5013680;28;20169;-71
2021/03/18 06:31:06;;;;;;;8.55;5.38;;;;;;;3.97;64.71;94047.22;5013471;28;20718;-71
2021/03/18 06:33:33;;;;;;;8.05;5.25;;;;;;;3.91;64.84;94048.53;5013677;28;20656;-71
2021/03/18 06:35:58;;;;;;;6.07;4.75;;;;;;;4.05;65.00;94045.63;5013335;28;20208;-71
2021/03/18 06:38:31;;;;;;;7.77;5.60;;;;;;;4.16;65.41;94051.28;5012582;28;20181;-74
2021/03/18 06:40:57;;;;;;;7.70;5.10;;;;;;;4.23;64.40;94057.59;5013050;28;20660;-71
2021/03/18 06:43:42;;;;;;;7.03;4.97;;;;;;;4.45;64.81;94060.97;5013474;28;20235;-71
2021/03/18 06:46:19;;;;;;;7.90;5.33;;;;;;;4.64;64.34;94063.13;5013160;28;20603;-71
2021/03/18 06:48:44;;;;;;;8.50;5.32;;;;;;;4.39;62.83;94060.41;5012278;28;20491;-72
2021/03/18 06:51:26;;;;;;;8.53;5.60;;;;;;;4.23;62.26;94056.81;5013035;28;20715;-71
2021/03/18 06:53:53;;;;;;;9.38;5.00;;;;;;;4.28;62.05;94061.13;5012871;28;20291;-71
2021/03/18 06:56:26;;;;;;;9.88;5.20;;;;;;;4.48;61.88;94055.78;5011781;28;20181;-70
2021/03/18 06:58:52;;;;;;;7.20;4.75;;;;;;;4.44;61.29;94064.72;5012954;28;20173;-71
2021/03/18 07:01:30;;;;;;;6.15;4.72;;;;;;;4.30;59.92;94067.63;5013159;28;20239;-71
2021/03/18 07:04:03;;;;;;;8.13;4.88;;;;;;;4.38;60.65;94066.78;5011963;28;20265;-71
2021/03/18 07:06:33;;;;;;;7.35;4.75;;;;;;;4.46;61.31;94070.44;5011159;28;20200;-72
2021/03/18 07:09:06;;;;;;;7.53;4.13;;;;;;;4.19;60.19;94072.53;5010062;28;20208;-73
2021/03/18 07:11:35;;;;;;;8.45;4.90;;;;;;;4.28;59.52;94058.50;5011565;28;20208;-74
2021/03/18 07:14:01;;;;;;;7.18;4.68;;;;;;;3.97;59.45;94039.31;5011332;28;20723;-71
2021/03/18 07:16:26;;;;;;;7.07;4.97;;;;;;;4.33;59.84;94074.16;5011426;28;20177;-71
2021/03/18 07:18:58;;;;;;;5.67;4.17;;;;;;;4.53;61.04;94052.16;4993971;28;20250;-70
2021/03/18 07:21:36;;;;;;;6.70;5.05;;;;;;;4.47;59.34;94069.34;5010153;28;20188;-73
2021/03/18 07:24:01;;;;;;;7.40;4.45;;;;;;;4.73;60.49;94059.28;5011035;28;20616;-73
2021/03/18 07:26:27;;;;;;;6.53;4.57;;;;;;;4.63;60.12;94064.22;5011265;28;20185;-71
2021/03/18 07:29:00;;;;;;;4.57;3.87;;;;;;;4.73;59.99;94069.09;5012273;28;20180;-71
2021/03/18 07:31:25;;;;;;;5.87;4.00;;;;;;;4.64;57.95;94074.47;5011180;28;20574;-73
2021/03/18 07:33:51;;;;;;;6.00;4.00;;;;;;;4.80;58.42;94077.25;4993704;28;20486;-73
2021/03/18 07:36:17;;;;;;;4.63;3.70;;;;;;;4.91;58.35;94075.72;5010884;28;20173;-71
2021/03/18 07:38:43;;;;;;;7.53;4.40;;;;;;;4.98;59.44;94070.66;5012465;28;20194;-71
2021/03/18 07:41:15;;;;;;;6.00;4.07;;;;;;;4.97;58.32;94071.78;5012146;28;20169;-72
2021/03/18 07:43:44;;;;;;;5.03;3.75;;;;;;;4.77;58.04;94070.00;5012300;28;20213;-73
2021/03/18 07:46:18;;;;;;;5.57;3.75;;;;;;;4.99;58.75;94077.53;5010791;28;20173;-72
2021/03/18 07:48:44;;;;;;;4.20;3.80;;;;;;;5.12;58.41;94072.25;5010817;28;20177;-75
2021/03/18 07:51:10;;;;;;;5.63;3.63;;;;;;;5.00;57.88;94065.84;5010373;28;20475;-72
2021/03/18 07:53:36;;;;;;;5.00;3.90;;;;;;;4.80;58.48;94068.56;4994278;28;20300;-74
2021/03/18 07:56:01;;;;;;;3.90;3.27;;;;;;;6.87;74.07;94076.16;4994406;28;20176;-71
2021/03/18 07:58:38;;;;;;;6.10;3.83;;;;;;;8.28;58.02;94075.53;5010819;28;20192;-70
2021/03/18 08:01:04;;;;;;;4.30;3.47;;;;;;;8.59;50.96;94070.09;5011754;28;20180;-72
2021/03/18 08:03:30;;;;;;;5.53;3.50;;;;;;;7.50;50.78;94072.72;5011743;28;20426;-74
2021/03/18 08:05:56;;;;;;;6.23;3.33;;;;;;;6.91;54.06;94083.44;5010546;28;20416;-74
2021/03/18 08:08:31;;;;;;;4.30;3.47;;;;;;;6.73;52.45;94075.00;5011985;28;20227;-72
2021/03/18 08:11:06;;;;;;;5.00;3.70;;;;;;;6.65;54.53;94083.91;5011624;28;20985;-74
2021/03/18 08:13:32;;;;;;;4.90;3.90;;;;;;;6.41;53.64;94080.25;5010746;28;20419;-72
2021/03/18 08:15:58;;;;;;;5.63;3.73;;;;;;;6.06;54.98;94080.00;5009116;28;20472;-72
2021/03/18 08:18:23;;;;;;;5.50;4.70;;;;;;;5.81;56.89;94084.56;5011940;28;20427;-73
2021/03/18 08:20:49;;;;;;;7.57;3.50;;;;;;;5.72;56.36;94092.63;5011522;28;20196;-74
2021/03/18 08:23:23;;;;;;;5.20;3.80;;;;;;;5.43;56.56;94093.63;5011839;28;20199;-72
2021/03/18 08:25:56;;;;;;;5.50;3.67;;;;;;;5.35;57.88;94093.75;5011480;28;20176;-73
2021/03/18 08:28:47;;;;;;;4.38;3.53;;;;;;;5.77;58.32;94104.88;5010724;28;21042;-72
2021/03/18 08:31:21;;;;;;;5.73;3.67;;;;;;;5.86;56.60;94080.91;5011517;28;20309;-75
2021/03/18 08:33:49;;;;;;;8.10;4.20;;;;;;;6.02;58.33;94098.47;5011527;28;20527;-72
2021/03/18 08:36:25;;;;;;;8.63;5.63;;;;;;;5.78;56.43;94098.47;5010350;28;20423;-72
2021/03/18 08:38:52;;;;;;;4.70;4.00;;;;;;;5.92;55.97;94093.63;5011468;28;20434;-71
2021/03/18 08:41:31;;;;;;;4.40;3.10;;;;;;;5.84;55.18;94092.63;5010067;28;20430;-75
2021/03/18 08:44:15;;;;;;;3.77;3.10;;;;;;;5.64;56.51;94095.41;5011721;28;20498;-72
2021/03/18 08:46:56;;;;;;;3.63;3.23;;;;;;;5.90;57.62;94097.69;5011674;28;20784;-72
2021/03/18 08:49:36;;;;;;;4.73;3.80;;;;;;;5.66;56.28;94095.84;5011315;28;20427;-73
2021/03/18 08:52:09;;;;;;;5.70;3.80;;;;;;;5.91;55.89;94112.50;5011372;28;20470;-74
2021/03/18 08:54:40;;;;;;;4.57;3.67;;;;;;;5.94;57.50;94101.22;5009554;28;20566;-74
2021/03/18 08:57:07;;;;;;;5.87;3.93;;;;;;;6.07;58.41;94100.91;5011567;28;20427;-73
2021/03/18 08:59:33;;;;;;;7.33;3.63;;;;;;;6.12;54.58;94097.25;5011193;28;20427;-74
2021/03/18 09:02:04;;;;;;;10.57;3.87;;;;;;;6.18;55.66;94095.13;5011417;28;20511;-73
2021/03/18 09:04:46;;;;;;;6.27;3.80;;;;;;;6.05;55.34;94095.13;5011118;28;20422;-73
2021/03/18 09:07:13;;;;;;;6.20;4.23;;;;;;;6.20;56.63;94093.69;5011421;28;20434;-73
2021/03/18 09:09:38;;;;;;;6.07;4.23;;;;;;;6.21;55.33;94100.50;5011041;28;20424;-73
2021/03/18 09:12:06;;;;;;;5.30;3.57;;;;;;;6.15;54.40;94098.44;5010162;28;20474;-73
2021/03/18 09:14:31;;;;;;;7.27;4.20;;;;;;;6.23;54.55;94102.81;5011105;28;20728;-74
2021/03/18 09:17:08;;;;;;;5.60;4.03;;;;;;;6.15;55.38;94103.75;4993704;28;20436;-73
2021/03/18 09:19:38;;;;;;;9.67;4.63;;;;;;;6.34;54.32;94101.25;5010943;28;20199;-74
2021/03/18 09:22:04;;;;;;;8.33;4.67;;;;;;;6.28;53.96;94100.72;5011233;28;20888;-73
2021/03/18 09:24:43;;;;;;;10.50;4.60;;;;;;;5.95;54.50;94102.78;5011046;28;20420;-73
2021/03/18 09:27:14;;;;;;;6.53;4.43;;;;;;;6.32;56.15;94106.13;5012215;28;20854;-73
2021/03/18 09:29:40;;;;;;;5.43;4.07;;;;;;;6.19;54.25;94092.13;5013455;28;20443;-73
2021/03/18 09:32:07;;;;;;;5.33;4.10;;;;;;;6.23;54.83;94111.56;5014727;28;20471;-73
2021/03/18 09:34:36;;;;;;;6.53;3.77;;;;;;;7.07;68.65;94116.84;5014521;28;20930;-73
2021/03/18 09:37:02;;;;;;;5.13;3.77;;;;;;;7.99;53.12;94119.38;5014703;28;20507;-74
2021/03/18 09:39:28;;;;;;;8.13;3.70;;;;;;;7.28;52.75;94121.13;5014517;28;20467;-73
2021/03/18 09:41:56;;;;;;;4.80;3.77;;;;;;;7.00;55.56;94127.28;5015109;28;20428;-73
2021/03/18 09:44:22;;;;;;;7.57;4.83;;;;;;;6.87;56.71;94136.41;5015145;28;20177;-73
2021/03/18 09:46:50;;;;;;;9.37;4.70;;;;;;;6.56;57.83;94134.44;5012008;28;20474;-72
2021/03/18 09:49:15;;;;;;;7.73;4.17;;;;;;;6.26;59.04;94133.97;5011652;28;20499;-72
2021/03/18 09:51:43;;;;;;;4.00;3.23;;;;;;;6.16;59.06;94129.91;5012710;28;20543;-73
2021/03/18 09:54:10;;;;;;;5.93;3.70;;;;;;;6.02;59.49;94135.56;5013074;28;20929;-72
2021/03/18 09:56:37;;;;;;;7.33;3.87;;;;;;;6.22;58.83;94141.06;5010222;28;20492;-73
2021/03/18 09:59:04;;;;;;;6.43;4.33;;;;;;;5.89;61.32;94141.94;5012671;28;20494;-73
2021/03/18 10:01:29;;;;;;;6.10;3.77;;;;;;;5.72;61.27;94139.53;5012556;28;20953;-72
2021/03/18 10:03:55;;;;;;;6.73;4.07;;;;;;;5.65;61.02;94141.97;5014352;28;20424;-74
2021/03/18 10:06:37;;;;;;;6.97;3.93;;;;;;;5.67;61.58;94151.16;5014019;28;20698;-74
2021/03/18 10:09:19;;;;;;;4.47;3.40;;;;;;;5.45;63.66;94156.88;5014179;28;20719;-74
2021/03/18 10:12:09;;;;;;;4.77;3.37;;;;;;;5.33;64.85;94157.59;5012520;28;20472;-74
2021/03/18 10:14:44;;;;;;;4.82;3.70;;;;;;;5.23;63.76;94160.69;5013445;28;20442;-71
2021/03/18 10:17:17;;;;;;;3.75;3.05;;;;;;;5.24;63.30;94167.53;5012934;28;20176;-73
2021/03/18 10:19:50;;;;;;;4.40;3.40;;;;;;;5.41;64.39;94166.56;5012506;28;20177;-73
2021/03/18 10:22:16;;;;;;;5.13;3.28;;;;;;;5.49;63.99;94163.03;5011543;28;20439;-72
2021/03/18 10:24:41;;;;;;;6.00;3.20;;;;;;;5.56;63.01;94161.41;5012478;28;20177;-72
2021/03/18 10:27:13;;;;;;;4.97;3.53;;;;;;;5.67;62.75;94160.94;5012525;28;20173;-71
2021/03/18 10:29:39;;;;;;;5.77;3.30;;;;;;;5.70;63.90;94173.53;5009900;28;20640;-71
2021/03/18 10:32:09;;;;;;;7.73;3.23;;;;;;;5.67;63.90;94166.25;5012289;28;20482;-72
2021/03/18 10:34:35;;;;;;;6.03;3.27;;;;;;;5.75;61.91;94168.03;5012246;28;20708;-72
2021/03/18 10:37:00;;;;;;;3.83;3.20;;;;;;;5.91;59.74;94168.94;5011597;28;20511;-74
2021/03/18 10:39:26;;;;;;;5.50;3.50;;;;;;;6.02;62.46;94162.06;5012530;28;20559;-73
2021/03/18 10:41:57;;;;;;;3.40;2.90;;;;;;;6.34;59.72;94168.31;5013438;28;20185;-72
2021/03/18 10:44:36;;;;;;;5.33;3.50;;;;;;;6.19;59.06;94157.63;5013545;28;20173;-73
2021/03/18 10:47:18;;;;;;;4.23;3.00;;;;;;;5.93;59.30;94173.88;4996199;28;20416;-73
2021/03/18 10:50:16;;;;;;;4.37;3.00;;;;;;;5.76;58.61;94170.34;5012492;28;20444;-72
2021/03/18 10:52:51;;;;;;;4.20;3.50;;;;;;;5.49;59.87;94176.28;4944368;28;20430;-72
2021/03/18 10:55:20;;;;;;;4.67;3.13;;;;;;;5.25;60.81;94182.31;4960767;28;20495;-72
2021/03/18 10:57:52;;;;;;;5.63;3.53;;;;;;;5.45;60.29;94180.69;4946300;28;20454;-72
2021/03/18 11:00:20;;;;;;;4.03;3.20;;;;;;;5.25;60.07;94161.13;4959129;28;20230;-72
2021/03/18 11:02:45;;;;;;;5.27;3.50;;;;;;;5.45;61.64;94172.75;4936451;29;20797;-75
2021/03/18 11:05:11;;;;;;;5.27;3.77;;;;;;;5.35;60.36;94173.19;4936494;29;20437;-73
2021/03/18 11:07:36;;;;;;;5.20;3.87;;;;;;;5.64;60.01;94162.38;4952605;29;20269;-74
2021/03/18 11:10:15;;;;;;;5.20;3.40;;;;;;;5.95;58.50;94155.78;4952306;29;20194;-74
2021/03/18 11:12:41;;;;;;;3.90;3.00;;;;;;;5.87;56.31;94159.28;4952460;29;20267;-72
2021/03/18 11:15:08;;;;;;;3.47;2.97;;;;;;;6.20;56.67;94162.59;4952203;29;20470;-72
2021/03/18 11:17:34;;;;;;;3.67;3.10;;;;;;;5.87;54.45;94154.75;4952443;29;20431;-72
2021/03/18 11:20:15;;;;;;;4.77;3.57;;;;;;;5.82;54.79;94161.06;4952202;29;20435;-72
2021/03/18 11:22:42;;;;;;;4.03;2.90;;;;;;;5.73;56.06;94157.75;4936368;29;20273;-73
2021/03/18 11:25:08;;;;;;;3.47;3.13;;;;;;;5.77;56.69;94161.28;4951994;29;21062;-72
2021/03/18 11:27:33;;;;;;;4.93;3.57;;;;;;;5.71;57.96;94151.25;4965053;28;20471;-72
2021/03/18 11:29:59;;;;;;;4.73;3.33;;;;;;;5.99;57.35;94154.78;5012447;28;20420;-72
2021/03/18 11:32:26;;;;;;;4.10;3.13;;;;;;;6.08;57.02;94160.75;5012552;28;20215;-73
2021/03/18 11:34:56;;;;;;;6.27;3.40;;;;;;;5.97;55.42;94161.53;5011400;28;20710;-73
2021/03/18 11:37:22;;;;;;;3.30;3.00;;;;;;;6.21;55.59;94160.72;5012573;28;20424;-73
2021/03/18 11:39:47;;;;;;;5.60;3.50;;;;;;;6.21;55.15;94150.88;5010246;28;20486;-73
2021/03/18 11:42:13;;;;;;;4.40;3.20;;;;;;;6.25;55.12;94165.03;5011967;28;20169;-71
2021/03/18 11:44:38;;;;;;;5.70;3.80;;;;;;;6.43;54.78;94168.19;5011932;28;20169;-71
2021/03/18 11:47:06;;;;;;;3.93;3.33;;;;;;;6.55;54.86;94160.19;5010593;28;20173;-73
2021/03/18 11:49:31;;;;;;;4.23;3.27;;;;;;;6.30;54.57;94156.84;4994300;28;20181;-71